Highland-University Park's Hourly Summary for Thursday, April 20, 2017
Hour Temp
(f)
RH
(%)
Solar Rad.
(MJ/m2)
Rainfall
(in)
Wind
(mph)
4/20/2017 12:00 AM 72 78 0 0 3.06
4/20/2017 1:00 AM 71 84 0 0 2.29
4/20/2017 2:00 AM 71 83 0 0 1.95
4/20/2017 3:00 AM 71 83 0 0 2.56
4/20/2017 4:00 AM 70 85 0 0 2.47
4/20/2017 5:00 AM 69 83 0 0 2.25
4/20/2017 6:00 AM 70 80 0 0 1.99
4/20/2017 7:00 AM 70 79 0 0 1.64
4/20/2017 8:00 AM 70 78 0.09 0 1.24
4/20/2017 9:00 AM 71 77 0.31 0 1.16
4/20/2017 10:00 AM 72 74 0.72 0 2.07
4/20/2017 11:00 AM 75 66 1.27 0 1.62
4/20/2017 12:00 PM 76 66 0.81 0 1.03
4/20/2017 1:00 PM 77 61 1.39 0 1.46
4/20/2017 2:00 PM 80 55 2.54 0 2.2
4/20/2017 3:00 PM 82 50 3.18 0 2.46
4/20/2017 4:00 PM 83 50 2.51 0 2.35
4/20/2017 5:00 PM 84 48 2.2 0 2.29
4/20/2017 6:00 PM 83 50 1.52 0 2.6
4/20/2017 7:00 PM 82 53 0.67 0 2.08
4/20/2017 8:00 PM 80 56 0.1 0 2.19
4/20/2017 9:00 PM 77 63 0 0 1.2
4/20/2017 10:00 PM 75 69 0 0 0.6
4/20/2017 11:00 PM 75 71 0 0 1.99
Data Summary 75 68 17.31 0.00 1.95